createdAt,value
2022-10-03T00:00:19.591Z,100.00
2022-10-03T00:02:52.174Z,100.00
2022-10-03T00:05:25.245Z,100.00
2022-10-03T00:08:03.408Z,100.00
2022-10-03T00:10:47.114Z,100.00
2022-10-03T00:13:38.946Z,100.00
2022-10-03T00:16:09.446Z,100.00
2022-10-03T00:18:45.330Z,100.00
2022-10-03T00:21:29.955Z,100.00
2022-10-03T00:24:39.333Z,100.00
2022-10-03T00:27:16.996Z,100.00
2022-10-03T00:29:53.621Z,100.00
2022-10-03T00:32:44.429Z,100.00
2022-10-03T00:35:17.574Z,100.00
2022-10-03T00:38:05.760Z,100.00
2022-10-03T00:40:50.745Z,100.00
2022-10-03T00:43:23.919Z,100.00
2022-10-03T00:46:27.738Z,100.00
2022-10-03T00:49:25.042Z,100.00
2022-10-03T00:52:20.742Z,100.00
2022-10-03T00:55:05.779Z,100.00
2022-10-03T00:58:01.185Z,100.00
2022-10-03T01:00:30.172Z,100.00
2022-10-03T01:02:59.631Z,100.00
2022-10-03T01:05:49.535Z,100.00
2022-10-03T01:08:36.971Z,100.00
2022-10-03T01:11:12.551Z,100.00
2022-10-03T01:13:45.119Z,100.00
2022-10-03T01:16:14.556Z,100.00
2022-10-03T01:19:13.403Z,100.00
2022-10-03T01:22:33.738Z,100.00
2022-10-03T01:25:16.272Z,100.00
2022-10-03T01:28:46.685Z,100.00
2022-10-03T01:31:17.765Z,100.00
2022-10-03T01:34:15.176Z,100.00
2022-10-03T01:36:52.636Z,100.00
2022-10-03T01:39:36.415Z,100.00
2022-10-03T01:42:18.813Z,100.00
2022-10-03T01:45:13.139Z,100.00
2022-10-03T01:47:47.763Z,100.00
2022-10-03T01:50:19.632Z,100.00
2022-10-03T01:53:04.867Z,100.00
2022-10-03T01:55:55.100Z,100.00
2022-10-03T01:58:32.494Z,100.00
2022-10-03T02:01:08.973Z,100.00
2022-10-03T02:03:46.923Z,100.00
2022-10-03T02:06:35.015Z,100.00
2022-10-03T02:09:08.445Z,100.00
2022-10-03T02:11:52.275Z,100.00
2022-10-03T02:14:24.595Z,100.00
2022-10-03T02:17:04.104Z,100.00
2022-10-03T02:20:23.739Z,100.00
2022-10-03T02:22:54.154Z,100.00
2022-10-03T02:25:41.000Z,100.00
2022-10-03T02:28:35.152Z,100.00
2022-10-03T02:31:33.412Z,100.00
2022-10-03T02:34:24.258Z,100.00
2022-10-03T02:37:07.120Z,100.00
2022-10-03T02:40:00.550Z,100.00
2022-10-03T02:42:37.021Z,100.00
2022-10-03T02:45:27.208Z,100.00
2022-10-03T02:48:30.670Z,100.00
2022-10-03T02:51:28.828Z,100.00
2022-10-03T02:54:15.080Z,100.00
2022-10-03T02:57:18.601Z,100.00
2022-10-03T03:00:05.360Z,100.00
2022-10-03T03:03:14.777Z,100.00
2022-10-03T03:06:10.627Z,100.00
2022-10-03T03:09:00.975Z,100.00
2022-10-03T03:11:33.358Z,100.00
2022-10-03T03:14:18.765Z,100.00
2022-10-03T03:17:26.648Z,100.00
2022-10-03T03:20:04.267Z,100.00
2022-10-03T03:22:36.800Z,100.00
2022-10-03T03:25:21.425Z,100.00
2022-10-03T03:27:52.360Z,100.00
2022-10-03T03:30:22.645Z,100.00
2022-10-03T03:33:13.777Z,100.00
2022-10-03T03:36:00.950Z,100.00
2022-10-03T03:38:40.701Z,100.00
2022-10-03T03:41:18.003Z,100.00
2022-10-03T03:44:09.011Z,100.00
2022-10-03T03:46:49.516Z,100.00
2022-10-03T03:49:26.780Z,100.00
2022-10-03T03:52:05.299Z,100.00
2022-10-03T03:54:59.638Z,100.00
2022-10-03T03:57:52.292Z,100.00
2022-10-03T04:00:48.270Z,100.00
2022-10-03T04:03:36.056Z,100.00
2022-10-03T04:06:09.220Z,100.00
2022-10-03T04:09:11.515Z,100.00
2022-10-03T04:12:09.285Z,100.00
2022-10-03T04:14:57.494Z,100.00
2022-10-03T04:18:07.373Z,100.00
2022-10-03T04:21:07.048Z,100.00
2022-10-03T04:23:58.141Z,100.00
2022-10-03T04:27:02.302Z,100.00
2022-10-03T04:30:19.316Z,100.00
2022-10-03T04:33:08.399Z,100.00
2022-10-03T04:35:37.543Z,100.00
2022-10-03T04:38:15.847Z,100.00
2022-10-03T04:40:54.079Z,100.00
2022-10-03T04:43:52.585Z,100.00
2022-10-03T04:46:27.842Z,100.00
2022-10-03T04:49:15.862Z,100.00
2022-10-03T04:51:45.367Z,100.00
2022-10-03T04:54:27.764Z,100.00
2022-10-03T04:56:59.539Z,100.00
2022-10-03T04:59:29.683Z,100.00
2022-10-03T05:02:04.076Z,100.00
2022-10-03T05:04:47.913Z,100.00
2022-10-03T05:07:19.311Z,100.00
2022-10-03T05:09:54.949Z,100.00
2022-10-03T05:12:58.395Z,99.67
2022-10-03T05:15:33.587Z,100.00
2022-10-03T05:18:23.381Z,99.72
2022-10-03T05:21:15.919Z,99.05
2022-10-03T05:24:19.411Z,99.16
2022-10-03T05:27:07.855Z,98.69
2022-10-03T05:29:43.806Z,98.35
2022-10-03T05:32:30.581Z,97.98
2022-10-03T05:34:56.914Z,97.90
2022-10-03T05:37:53.092Z,97.76
2022-10-03T05:40:25.869Z,97.41
2022-10-03T05:42:58.257Z,97.42
2022-10-03T05:46:02.289Z,96.66
2022-10-03T05:48:48.820Z,96.76
2022-10-03T05:51:28.714Z,97.32
2022-10-03T05:54:07.179Z,97.35
2022-10-03T05:56:56.556Z,97.02
2022-10-03T05:59:52.695Z,96.83
2022-10-03T06:02:32.957Z,96.68
2022-10-03T06:05:27.307Z,97.14
2022-10-03T06:08:23.675Z,96.73
2022-10-03T06:11:16.007Z,96.93
2022-10-03T06:14:24.555Z,97.01
2022-10-03T06:16:54.005Z,96.78
2022-10-03T06:19:49.678Z,96.39
2022-10-03T06:22:47.083Z,95.80
2022-10-03T06:25:35.116Z,95.08
2022-10-03T06:28:29.354Z,95.64
2022-10-03T06:31:22.675Z,95.10
2022-10-03T06:34:19.374Z,95.39
2022-10-03T06:37:07.117Z,95.00
2022-10-03T06:40:12.423Z,94.92
2022-10-03T06:42:54.088Z,95.10
2022-10-03T06:45:30.696Z,94.95
2022-10-03T06:48:15.945Z,94.81
2022-10-03T06:51:03.043Z,94.61
2022-10-03T06:53:54.175Z,94.39
2022-10-03T06:56:49.776Z,94.11
2022-10-03T06:59:35.993Z,94.07
2022-10-03T07:02:37.202Z,93.99
2022-10-03T07:05:22.362Z,93.83
2022-10-03T07:08:10.281Z,93.80
2022-10-03T07:10:56.618Z,93.68
2022-10-03T07:13:22.983Z,93.61
2022-10-03T07:16:30.880Z,93.81
2022-10-03T07:19:15.921Z,93.89
2022-10-03T07:22:18.652Z,93.65
2022-10-03T07:25:09.611Z,93.77
2022-10-03T07:27:54.835Z,93.95
2022-10-03T07:30:23.336Z,94.08
2022-10-03T07:33:08.475Z,94.18
2022-10-03T07:36:08.188Z,93.83
2022-10-03T07:39:04.715Z,93.77
2022-10-03T07:41:51.488Z,93.88
2022-10-03T07:44:40.315Z,94.30
2022-10-03T07:47:44.787Z,94.43
2022-10-03T07:50:35.491Z,94.60
2022-10-03T07:53:16.952Z,94.94
2022-10-03T07:56:09.695Z,95.61
2022-10-03T07:58:58.792Z,95.49
2022-10-03T08:01:40.315Z,96.19
2022-10-03T08:04:20.241Z,96.68
2022-10-03T08:07:20.885Z,97.11
2022-10-03T08:10:44.853Z,98.73
2022-10-03T08:13:33.774Z,99.32
2022-10-03T08:16:49.087Z,100.00
2022-10-03T08:19:33.559Z,100.00
2022-10-03T08:22:39.903Z,100.00
2022-10-03T08:25:26.984Z,100.00
2022-10-03T08:28:42.768Z,100.00
2022-10-03T08:31:31.077Z,100.00
2022-10-03T08:34:22.338Z,100.00
2022-10-03T08:37:07.400Z,100.00
2022-10-03T08:39:56.174Z,100.00
2022-10-03T08:42:25.682Z,100.00
2022-10-03T08:45:10.375Z,100.00
2022-10-03T08:48:24.981Z,100.00
2022-10-03T08:51:19.401Z,100.00
2022-10-03T08:54:20.056Z,100.00
2022-10-03T08:57:11.503Z,100.00
2022-10-03T08:59:56.256Z,100.00
2022-10-03T09:03:31.437Z,100.00
2022-10-03T09:06:11.466Z,100.00
2022-10-03T09:09:16.226Z,100.00
2022-10-03T09:11:54.812Z,100.00
2022-10-03T09:14:51.657Z,100.00
2022-10-03T09:17:57.084Z,100.00
2022-10-03T09:20:45.312Z,100.00
2022-10-03T09:23:24.697Z,100.00
2022-10-03T09:26:14.842Z,100.00
2022-10-03T09:28:53.452Z,100.00
2022-10-03T09:31:47.604Z,100.00
2022-10-03T09:34:51.554Z,100.00
2022-10-03T09:37:52.146Z,100.00
2022-10-03T09:40:56.026Z,100.00
2022-10-03T09:43:57.135Z,100.00
2022-10-03T09:47:16.986Z,100.00
2022-10-03T09:50:07.101Z,100.00
2022-10-03T09:52:46.878Z,100.00
2022-10-03T09:55:22.375Z,100.00
2022-10-03T09:58:03.695Z,100.00
2022-10-03T10:01:12.676Z,100.00
2022-10-03T10:04:28.498Z,100.00
2022-10-03T10:07:45.965Z,100.00
2022-10-03T10:10:27.422Z,100.00
2022-10-03T10:13:13.034Z,100.00
2022-10-03T10:16:08.446Z,100.00
2022-10-03T10:18:47.980Z,100.00
2022-10-03T10:21:42.510Z,100.00
2022-10-03T10:24:46.739Z,100.00
2022-10-03T10:27:35.138Z,100.00
2022-10-03T10:30:04.538Z,100.00
2022-10-03T10:32:45.072Z,100.00
2022-10-03T10:35:29.533Z,100.00
2022-10-03T10:38:15.269Z,100.00
2022-10-03T10:41:04.618Z,100.00
2022-10-03T10:44:08.609Z,100.00
2022-10-03T10:47:04.220Z,100.00
2022-10-03T10:49:57.079Z,100.00
2022-10-03T10:52:51.426Z,100.00
2022-10-03T10:55:46.199Z,100.00
2022-10-03T10:58:43.547Z,100.00
2022-10-03T11:01:16.129Z,100.00
2022-10-03T11:04:13.077Z,100.00
2022-10-03T11:07:17.237Z,100.00
2022-10-03T11:09:51.909Z,100.00
2022-10-03T11:12:49.270Z,100.00
2022-10-03T11:15:18.839Z,100.00
2022-10-03T11:18:15.511Z,100.00
2022-10-03T11:21:02.150Z,100.00
2022-10-03T11:23:43.713Z,100.00
2022-10-03T11:26:42.819Z,100.00
2022-10-03T11:29:18.196Z,100.00
2022-10-03T11:32:24.251Z,100.00
2022-10-03T11:35:17.088Z,100.00
2022-10-03T11:37:50.703Z,100.00
2022-10-03T11:40:38.694Z,100.00
2022-10-03T11:43:04.989Z,100.00
2022-10-03T11:45:43.600Z,100.00
2022-10-03T11:48:13.095Z,100.00
2022-10-03T11:50:40.848Z,100.00
2022-10-03T11:53:25.412Z,100.00
2022-10-03T11:55:54.875Z,100.00
2022-10-03T11:58:41.029Z,100.00
2022-10-03T12:01:32.947Z,100.00
2022-10-03T12:04:11.541Z,100.00
2022-10-03T12:07:18.066Z,100.00
2022-10-03T12:10:12.414Z,100.00
2022-10-03T12:12:53.606Z,100.00
2022-10-03T12:15:45.624Z,100.00
2022-10-03T12:18:37.311Z,100.00
2022-10-03T12:21:22.820Z,100.00
2022-10-03T12:24:18.804Z,100.00
2022-10-03T12:26:57.930Z,100.00
2022-10-03T12:29:28.736Z,100.00
2022-10-03T12:32:13.038Z,100.00
2022-10-03T12:34:49.989Z,100.00
2022-10-03T12:37:35.248Z,100.00
2022-10-03T12:40:14.883Z,100.00
2022-10-03T12:43:00.293Z,100.00
2022-10-03T12:45:29.733Z,100.00
2022-10-03T12:48:03.012Z,100.00
2022-10-03T12:50:38.919Z,100.00
2022-10-03T12:53:17.643Z,100.00
2022-10-03T12:56:11.256Z,100.00
2022-10-03T12:59:02.459Z,100.00
2022-10-03T13:02:04.603Z,100.00
2022-10-03T13:05:05.510Z,100.00
2022-10-03T13:07:39.771Z,100.00
2022-10-03T13:10:39.347Z,100.00
2022-10-03T13:13:24.049Z,100.00
2022-10-03T13:16:18.371Z,100.00
2022-10-03T13:18:48.759Z,100.00
2022-10-03T13:21:45.355Z,100.00
2022-10-03T13:24:22.177Z,100.00
2022-10-03T13:27:25.628Z,100.00
2022-10-03T13:30:32.558Z,100.00
2022-10-03T13:33:13.043Z,100.00
2022-10-03T13:36:02.365Z,100.00
2022-10-03T13:38:38.749Z,100.00
2022-10-03T13:41:24.123Z,100.00
2022-10-03T13:43:58.471Z,100.00
2022-10-03T13:46:55.519Z,100.00
2022-10-03T13:49:35.592Z,100.00
2022-10-03T13:52:18.496Z,100.00
2022-10-03T13:55:09.824Z,100.00
2022-10-03T13:57:42.596Z,100.00
2022-10-03T14:00:13.579Z,100.00
2022-10-03T14:03:16.600Z,100.00
2022-10-03T14:06:22.131Z,100.00
2022-10-03T14:09:27.192Z,100.00
2022-10-03T14:12:00.851Z,100.00
2022-10-03T14:14:57.410Z,100.00
2022-10-03T14:17:47.068Z,100.00
2022-10-03T14:20:42.837Z,100.00
2022-10-03T14:23:29.992Z,100.00
2022-10-03T14:26:04.820Z,100.00
2022-10-03T14:28:37.015Z,100.00
2022-10-03T14:31:41.067Z,100.00
2022-10-03T14:34:50.900Z,100.00
2022-10-03T14:37:29.440Z,100.00
2022-10-03T14:40:20.442Z,100.00
2022-10-03T14:43:20.762Z,100.00
2022-10-03T14:45:51.556Z,100.00
2022-10-03T14:48:22.603Z,100.00
2022-10-03T14:50:54.860Z,100.00
2022-10-03T14:53:29.739Z,100.00
2022-10-03T14:55:59.895Z,100.00
2022-10-03T14:58:32.543Z,100.00
2022-10-03T15:01:15.028Z,100.00
2022-10-03T15:03:55.683Z,100.00
2022-10-03T15:06:32.911Z,100.00
2022-10-03T15:09:02.430Z,100.00
2022-10-03T15:11:32.781Z,100.00
2022-10-03T15:14:02.823Z,100.00
2022-10-03T15:16:34.550Z,100.00
2022-10-03T15:19:18.811Z,100.00
2022-10-03T15:21:48.850Z,100.00
2022-10-03T15:24:35.224Z,100.00
2022-10-03T15:27:06.660Z,100.00
2022-10-03T15:29:34.587Z,100.00
2022-10-03T15:32:04.729Z,100.00
2022-10-03T15:34:38.033Z,100.00
2022-10-03T15:37:22.915Z,100.00
2022-10-03T15:39:52.616Z,100.00
2022-10-03T15:42:25.449Z,100.00
2022-10-03T15:45:00.641Z,100.00
2022-10-03T15:47:29.142Z,100.00
2022-10-03T15:50:00.435Z,100.00
2022-10-03T15:52:41.426Z,100.00
2022-10-03T15:55:18.081Z,100.00
2022-10-03T15:57:48.088Z,100.00
2022-10-03T16:00:29.077Z,100.00
2022-10-03T16:03:30.512Z,100.00
2022-10-03T16:06:13.837Z,100.00
2022-10-03T16:08:55.795Z,100.00
2022-10-03T16:11:25.883Z,100.00
2022-10-03T16:14:17.474Z,100.00
2022-10-03T16:16:58.066Z,100.00
2022-10-03T16:19:56.039Z,100.00
2022-10-03T16:22:24.618Z,100.00
2022-10-03T16:24:57.181Z,100.00
2022-10-03T16:27:26.023Z,100.00
2022-10-03T16:30:10.769Z,100.00
2022-10-03T16:33:12.577Z,100.00
2022-10-03T16:35:53.580Z,100.00
2022-10-03T16:38:59.204Z,100.00
2022-10-03T16:41:34.514Z,100.00
2022-10-03T16:44:17.959Z,100.00
2022-10-03T16:46:46.339Z,100.00
2022-10-03T16:49:49.403Z,100.00
2022-10-03T16:52:35.447Z,100.00
2022-10-03T16:55:06.631Z,100.00
2022-10-03T16:57:59.928Z,100.00
2022-10-03T17:00:41.676Z,100.00
2022-10-03T17:03:19.117Z,100.00
2022-10-03T17:05:49.137Z,100.00
2022-10-03T17:08:40.611Z,100.00
2022-10-03T17:11:08.345Z,100.00
2022-10-03T17:14:01.119Z,100.00
2022-10-03T17:16:47.734Z,100.00
2022-10-03T17:19:31.971Z,100.00
2022-10-03T17:22:06.864Z,100.00
2022-10-03T17:24:47.976Z,100.00
2022-10-03T17:27:37.140Z,100.00
2022-10-03T17:30:25.841Z,100.00
2022-10-03T17:32:58.786Z,100.00
2022-10-03T17:35:52.851Z,100.00
2022-10-03T17:38:50.485Z,100.00
2022-10-03T17:41:44.335Z,100.00
2022-10-03T17:44:34.563Z,100.00
2022-10-03T17:47:23.608Z,100.00
2022-10-03T17:49:58.986Z,100.00
2022-10-03T17:52:27.511Z,100.00
2022-10-03T17:54:58.445Z,100.00
2022-10-03T17:57:50.507Z,100.00
2022-10-03T18:00:29.767Z,100.00
2022-10-03T18:03:05.122Z,100.00
2022-10-03T18:05:40.849Z,100.00
2022-10-03T18:08:14.336Z,100.00
2022-10-03T18:10:49.189Z,100.00
2022-10-03T18:13:22.840Z,100.00
2022-10-03T18:15:52.386Z,100.00
2022-10-03T18:18:43.863Z,100.00
2022-10-03T18:21:17.031Z,100.00
2022-10-03T18:24:18.693Z,100.00
2022-10-03T18:26:49.028Z,100.00
2022-10-03T18:29:28.678Z,100.00
2022-10-03T18:32:19.515Z,100.00
2022-10-03T18:34:52.491Z,100.00
2022-10-03T18:37:28.104Z,100.00
2022-10-03T18:39:56.821Z,100.00
2022-10-03T18:42:28.108Z,100.00
2022-10-03T18:45:00.530Z,100.00
2022-10-03T18:47:34.982Z,100.00
2022-10-03T18:50:13.743Z,100.00
2022-10-03T18:52:40.092Z,100.00
2022-10-03T18:55:20.379Z,100.00
2022-10-03T18:58:13.385Z,100.00
2022-10-03T19:00:50.530Z,100.00
2022-10-03T19:03:23.202Z,100.00
2022-10-03T19:05:57.821Z,100.00
2022-10-03T19:08:38.689Z,100.00
2022-10-03T19:11:16.570Z,100.00
2022-10-03T19:13:58.011Z,100.00
2022-10-03T19:16:47.309Z,100.00
2022-10-03T19:19:48.938Z,100.00
2022-10-03T19:22:21.149Z,100.00
2022-10-03T19:24:59.166Z,100.00
2022-10-03T19:27:39.599Z,100.00
2022-10-03T19:30:07.216Z,100.00
2022-10-03T19:32:48.976Z,100.00
2022-10-03T19:35:21.047Z,100.00
2022-10-03T19:38:04.566Z,100.00
2022-10-03T19:40:44.967Z,100.00
2022-10-03T19:43:34.180Z,100.00
2022-10-03T19:46:39.979Z,100.00
2022-10-03T19:49:25.502Z,100.00
2022-10-03T19:52:08.807Z,100.00
2022-10-03T19:54:46.046Z,100.00
2022-10-03T19:57:35.691Z,100.00
2022-10-03T20:00:07.281Z,100.00
2022-10-03T20:02:33.954Z,100.00
2022-10-03T20:05:01.256Z,100.00
2022-10-03T20:07:45.796Z,100.00
2022-10-03T20:10:30.428Z,100.00
2022-10-03T20:13:03.347Z,100.00
2022-10-03T20:15:38.547Z,100.00
2022-10-03T20:18:06.979Z,100.00
2022-10-03T20:20:33.738Z,100.00
2022-10-03T20:23:11.029Z,100.00
2022-10-03T20:25:44.214Z,100.00
2022-10-03T20:28:23.516Z,100.00
2022-10-03T20:30:52.282Z,100.00
2022-10-03T20:33:23.240Z,100.00
2022-10-03T20:36:04.056Z,100.00
2022-10-03T20:38:54.765Z,100.00
2022-10-03T20:41:35.886Z,99.85
2022-10-03T20:44:21.970Z,99.80
2022-10-03T20:46:53.148Z,99.36
2022-10-03T20:49:33.534Z,99.32
2022-10-03T20:52:04.847Z,97.89
2022-10-03T20:54:36.340Z,97.96
2022-10-03T20:57:18.100Z,97.57
2022-10-03T20:59:52.008Z,96.79
2022-10-03T21:02:29.614Z,96.65
2022-10-03T21:04:56.150Z,96.22
2022-10-03T21:07:38.378Z,95.92
2022-10-03T21:10:20.488Z,94.77
2022-10-03T21:12:50.374Z,94.43
2022-10-03T21:15:29.752Z,93.99
2022-10-03T21:17:57.108Z,93.90
2022-10-03T21:20:31.181Z,93.57
2022-10-03T21:23:03.044Z,92.73
2022-10-03T21:25:41.422Z,92.68
2022-10-03T21:28:39.215Z,92.14
2022-10-03T21:31:30.337Z,93.32
2022-10-03T21:34:05.656Z,90.86
2022-10-03T21:36:44.152Z,90.61
2022-10-03T21:39:58.528Z,90.33
2022-10-03T21:42:53.590Z,90.21
2022-10-03T21:45:43.394Z,90.11
2022-10-03T21:48:33.028Z,90.02
2022-10-03T21:51:05.352Z,90.14
2022-10-03T21:53:46.752Z,90.11
2022-10-03T21:56:41.036Z,90.00
2022-10-03T21:59:16.419Z,90.01
2022-10-03T22:02:12.512Z,89.74
2022-10-03T22:04:57.371Z,90.04
2022-10-03T22:07:41.579Z,89.76
2022-10-03T22:10:21.545Z,89.79
2022-10-03T22:12:56.416Z,89.77
2022-10-03T22:15:48.059Z,89.81
2022-10-03T22:18:18.679Z,89.81
2022-10-03T22:21:22.346Z,89.71
2022-10-03T22:24:19.440Z,90.04
2022-10-03T22:27:04.462Z,90.32
2022-10-03T22:29:49.092Z,90.21
2022-10-03T22:32:25.317Z,90.12
2022-10-03T22:35:19.211Z,90.03
2022-10-03T22:37:45.914Z,90.08
2022-10-03T22:40:12.952Z,89.94
2022-10-03T22:42:46.011Z,89.78
2022-10-03T22:45:16.255Z,89.74
2022-10-03T22:47:47.471Z,89.70
2022-10-03T22:50:17.454Z,89.77
2022-10-03T22:52:48.287Z,89.81
2022-10-03T22:55:18.552Z,89.86
2022-10-03T22:57:46.548Z,89.79
2022-10-03T23:00:23.297Z,89.57
2022-10-03T23:02:59.667Z,89.49
2022-10-03T23:05:58.534Z,89.45
2022-10-03T23:08:33.877Z,89.43
2022-10-03T23:11:15.900Z,89.58
2022-10-03T23:13:44.352Z,89.32
2022-10-03T23:16:51.750Z,89.48
2022-10-03T23:19:51.531Z,89.07
2022-10-03T23:22:23.566Z,89.20
2022-10-03T23:25:01.518Z,89.07
2022-10-03T23:27:34.826Z,89.22
2022-10-03T23:30:30.326Z,89.23
2022-10-03T23:33:00.460Z,89.33
2022-10-03T23:35:41.411Z,89.39
2022-10-03T23:38:33.232Z,89.28
2022-10-03T23:41:04.514Z,89.35
2022-10-03T23:43:39.334Z,89.25
2022-10-03T23:46:13.058Z,89.16
2022-10-03T23:48:44.820Z,89.36
2022-10-03T23:51:16.209Z,89.34
2022-10-03T23:53:47.283Z,89.46
2022-10-03T23:56:26.487Z,89.52
2022-10-03T23:59:07.743Z,89.55
